sensor_id;sensor_type;location;lat;lon;timestamp;P1;durP1;ratioP1;P2;durP2;ratioP2
66893;SDS011;53801;55.786;49.142;2023-07-31T00:02:20;11.83;;;7.23;;
66893;SDS011;53801;55.786;49.142;2023-07-31T00:04:45;10.45;;;6.78;;
66893;SDS011;53801;55.786;49.142;2023-07-31T00:07:11;11.20;;;7.33;;
66893;SDS011;53801;55.786;49.142;2023-07-31T00:09:36;9.60;;;6.67;;
66893;SDS011;53801;55.786;49.142;2023-07-31T00:12:02;12.70;;;7.10;;
66893;SDS011;53801;55.786;49.142;2023-07-31T00:14:27;10.63;;;6.67;;
66893;SDS011;53801;55.786;49.142;2023-07-31T00:16:53;9.20;;;6.20;;
66893;SDS011;53801;55.786;49.142;2023-07-31T00:19:18;10.55;;;6.75;;
66893;SDS011;53801;55.786;49.142;2023-07-31T00:21:44;9.93;;;6.70;;
66893;SDS011;53801;55.786;49.142;2023-07-31T00:24:09;9.73;;;6.13;;
66893;SDS011;53801;55.786;49.142;2023-07-31T00:26:35;10.27;;;6.38;;
66893;SDS011;53801;55.786;49.142;2023-07-31T00:29:00;9.00;;;5.95;;
66893;SDS011;53801;55.786;49.142;2023-07-31T00:31:26;9.93;;;6.00;;
66893;SDS011;53801;55.786;49.142;2023-07-31T00:33:51;9.90;;;5.60;;
66893;SDS011;53801;55.786;49.142;2023-07-31T00:36:17;8.98;;;5.88;;
66893;SDS011;53801;55.786;49.142;2023-07-31T00:38:43;8.87;;;5.90;;
66893;SDS011;53801;55.786;49.142;2023-07-31T00:41:08;10.25;;;5.65;;
66893;SDS011;53801;55.786;49.142;2023-07-31T00:43:34;8.93;;;5.70;;
66893;SDS011;53801;55.786;49.142;2023-07-31T00:45:59;10.70;;;5.50;;
66893;SDS011;53801;55.786;49.142;2023-07-31T00:48:25;9.80;;;5.65;;
66893;SDS011;53801;55.786;49.142;2023-07-31T00:50:51;10.30;;;5.90;;
66893;SDS011;53801;55.786;49.142;2023-07-31T00:53:16;7.90;;;5.10;;
66893;SDS011;53801;55.786;49.142;2023-07-31T00:55:42;9.63;;;5.50;;
66893;SDS011;53801;55.786;49.142;2023-07-31T00:58:08;11.25;;;5.32;;
66893;SDS011;53801;55.786;49.142;2023-07-31T01:00:33;9.68;;;5.55;;
66893;SDS011;53801;55.786;49.142;2023-07-31T01:02:59;10.37;;;5.20;;
66893;SDS011;53801;55.786;49.142;2023-07-31T01:05:29;8.10;;;5.25;;
66893;SDS011;53801;55.786;49.142;2023-07-31T01:08:04;10.20;;;5.35;;
66893;SDS011;53801;55.786;49.142;2023-07-31T01:10:36;10.13;;;5.70;;
66893;SDS011;53801;55.786;49.142;2023-07-31T01:13:02;8.45;;;5.70;;
66893;SDS011;53801;55.786;49.142;2023-07-31T01:15:28;9.02;;;5.60;;
66893;SDS011;53801;55.786;49.142;2023-07-31T01:17:54;9.17;;;6.00;;
66893;SDS011;53801;55.786;49.142;2023-07-31T01:20:23;9.48;;;5.95;;
66893;SDS011;53801;55.786;49.142;2023-07-31T01:28:14;9.75;;;5.30;;
66893;SDS011;53801;55.786;49.142;2023-07-31T01:30:43;7.57;;;5.00;;
66893;SDS011;53801;55.786;49.142;2023-07-31T01:33:09;7.73;;;4.70;;
66893;SDS011;53801;55.786;49.142;2023-07-31T01:35:35;6.63;;;4.38;;
66893;SDS011;53801;55.786;49.142;2023-07-31T01:38:01;4.53;;;3.37;;
66893;SDS011;53801;55.786;49.142;2023-07-31T01:40:26;6.32;;;3.50;;
66893;SDS011;53801;55.786;49.142;2023-07-31T01:42:52;5.85;;;3.33;;
66893;SDS011;53801;55.786;49.142;2023-07-31T01:45:17;5.83;;;2.90;;
66893;SDS011;53801;55.786;49.142;2023-07-31T01:47:42;4.03;;;2.50;;
66893;SDS011;53801;55.786;49.142;2023-07-31T01:50:08;3.20;;;1.90;;
66893;SDS011;53801;55.786;49.142;2023-07-31T01:52:34;3.38;;;1.83;;
66893;SDS011;53801;55.786;49.142;2023-07-31T01:54:59;4.80;;;1.83;;
66893;SDS011;53801;55.786;49.142;2023-07-31T01:57:25;2.57;;;1.73;;
66893;SDS011;53801;55.786;49.142;2023-07-31T01:59:50;4.93;;;1.77;;
66893;SDS011;53801;55.786;49.142;2023-07-31T02:02:16;4.13;;;1.90;;
66893;SDS011;53801;55.786;49.142;2023-07-31T02:04:41;2.60;;;1.70;;
66893;SDS011;53801;55.786;49.142;2023-07-31T02:07:07;2.90;;;1.60;;
66893;SDS011;53801;55.786;49.142;2023-07-31T02:09:32;2.92;;;1.60;;
66893;SDS011;53801;55.786;49.142;2023-07-31T02:11:57;3.90;;;1.67;;
66893;SDS011;53801;55.786;49.142;2023-07-31T02:14:23;3.03;;;1.50;;
66893;SDS011;53801;55.786;49.142;2023-07-31T02:16:49;4.60;;;1.85;;
66893;SDS011;53801;55.786;49.142;2023-07-31T02:19:18;3.50;;;1.87;;
66893;SDS011;53801;55.786;49.142;2023-07-31T02:24:55;2.63;;;1.70;;
66893;SDS011;53801;55.786;49.142;2023-07-31T02:29:53;2.55;;;1.40;;
66893;SDS011;53801;55.786;49.142;2023-07-31T02:32:19;3.58;;;1.42;;
66893;SDS011;53801;55.786;49.142;2023-07-31T02:34:44;3.03;;;1.20;;
66893;SDS011;53801;55.786;49.142;2023-07-31T02:37:10;5.93;;;1.23;;
66893;SDS011;53801;55.786;49.142;2023-07-31T02:39:35;5.35;;;1.23;;
66893;SDS011;53801;55.786;49.142;2023-07-31T02:42:01;3.83;;;1.47;;
66893;SDS011;53801;55.786;49.142;2023-07-31T02:44:27;3.30;;;1.10;;
66893;SDS011;53801;55.786;49.142;2023-07-31T02:46:52;3.45;;;1.00;;
66893;SDS011;53801;55.786;49.142;2023-07-31T02:49:18;2.23;;;1.20;;
66893;SDS011;53801;55.786;49.142;2023-07-31T02:51:43;4.30;;;1.47;;
66893;SDS011;53801;55.786;49.142;2023-07-31T02:54:09;2.67;;;1.00;;
66893;SDS011;53801;55.786;49.142;2023-07-31T02:56:34;4.47;;;1.70;;
66893;SDS011;53801;55.786;49.142;2023-07-31T02:59:00;5.50;;;2.10;;
66893;SDS011;53801;55.786;49.142;2023-07-31T03:01:25;3.70;;;1.90;;
66893;SDS011;53801;55.786;49.142;2023-07-31T03:03:51;5.95;;;2.00;;
66893;SDS011;53801;55.786;49.142;2023-07-31T03:06:16;6.40;;;2.00;;
66893;SDS011;53801;55.786;49.142;2023-07-31T03:08:42;3.87;;;2.03;;
66893;SDS011;53801;55.786;49.142;2023-07-31T03:11:07;5.27;;;1.90;;
66893;SDS011;53801;55.786;49.142;2023-07-31T03:13:32;6.35;;;1.77;;
66893;SDS011;53801;55.786;49.142;2023-07-31T03:15:58;3.00;;;1.90;;
66893;SDS011;53801;55.786;49.142;2023-07-31T03:18:23;5.93;;;2.10;;
66893;SDS011;53801;55.786;49.142;2023-07-31T03:20:49;2.95;;;2.08;;
66893;SDS011;53801;55.786;49.142;2023-07-31T03:23:14;5.50;;;2.10;;
66893;SDS011;53801;55.786;49.142;2023-07-31T03:25:42;3.23;;;1.77;;
66893;SDS011;53801;55.786;49.142;2023-07-31T03:28:20;3.15;;;1.70;;
66893;SDS011;53801;55.786;49.142;2023-07-31T03:30:45;3.13;;;1.70;;
66893;SDS011;53801;55.786;49.142;2023-07-31T03:33:11;2.73;;;1.77;;
66893;SDS011;53801;55.786;49.142;2023-07-31T03:35:36;3.13;;;1.90;;
66893;SDS011;53801;55.786;49.142;2023-07-31T03:38:02;3.63;;;1.40;;
66893;SDS011;53801;55.786;49.142;2023-07-31T03:43:25;3.42;;;1.50;;
66893;SDS011;53801;55.786;49.142;2023-07-31T03:45:51;2.93;;;1.40;;
66893;SDS011;53801;55.786;49.142;2023-07-31T03:48:17;2.83;;;1.52;;
66893;SDS011;53801;55.786;49.142;2023-07-31T03:50:42;4.60;;;1.60;;
66893;SDS011;53801;55.786;49.142;2023-07-31T03:53:08;1.93;;;1.07;;
66893;SDS011;53801;55.786;49.142;2023-07-31T03:55:33;3.35;;;1.40;;
66893;SDS011;53801;55.786;49.142;2023-07-31T03:57:59;2.27;;;1.40;;
66893;SDS011;53801;55.786;49.142;2023-07-31T04:00:26;3.28;;;1.50;;
66893;SDS011;53801;55.786;49.142;2023-07-31T04:02:51;3.77;;;1.80;;
66893;SDS011;53801;55.786;49.142;2023-07-31T04:05:17;2.20;;;1.80;;
66893;SDS011;53801;55.786;49.142;2023-07-31T04:07:45;3.60;;;1.52;;
66893;SDS011;53801;55.786;49.142;2023-07-31T04:10:10;4.20;;;1.80;;
66893;SDS011;53801;55.786;49.142;2023-07-31T04:12:36;3.00;;;1.50;;
66893;SDS011;53801;55.786;49.142;2023-07-31T04:15:01;2.75;;;1.60;;
66893;SDS011;53801;55.786;49.142;2023-07-31T04:17:31;2.45;;;1.92;;
66893;SDS011;53801;55.786;49.142;2023-07-31T04:19:57;2.30;;;2.10;;
66893;SDS011;53801;55.786;49.142;2023-07-31T04:22:22;3.90;;;2.27;;
66893;SDS011;53801;55.786;49.142;2023-07-31T04:24:48;5.90;;;2.10;;
66893;SDS011;53801;55.786;49.142;2023-07-31T04:27:13;5.07;;;2.47;;
66893;SDS011;53801;55.786;49.142;2023-07-31T04:29:39;5.20;;;1.90;;
66893;SDS011;53801;55.786;49.142;2023-07-31T04:32:07;3.67;;;1.40;;
66893;SDS011;53801;55.786;49.142;2023-07-31T04:37:30;5.45;;;1.67;;
66893;SDS011;53801;55.786;49.142;2023-07-31T04:39:56;3.20;;;1.67;;
66893;SDS011;53801;55.786;49.142;2023-07-31T04:42:22;4.40;;;1.40;;
66893;SDS011;53801;55.786;49.142;2023-07-31T04:44:47;4.40;;;1.30;;
66893;SDS011;53801;55.786;49.142;2023-07-31T04:47:17;4.57;;;1.47;;
66893;SDS011;53801;55.786;49.142;2023-07-31T04:49:43;4.22;;;1.50;;
66893;SDS011;53801;55.786;49.142;2023-07-31T04:52:08;4.27;;;1.43;;
66893;SDS011;53801;55.786;49.142;2023-07-31T04:54:34;2.00;;;1.40;;
66893;SDS011;53801;55.786;49.142;2023-07-31T04:56:59;4.00;;;1.38;;
66893;SDS011;53801;55.786;49.142;2023-07-31T04:59:24;2.90;;;1.40;;
66893;SDS011;53801;55.786;49.142;2023-07-31T05:01:50;2.53;;;1.50;;
66893;SDS011;53801;55.786;49.142;2023-07-31T05:04:15;4.53;;;1.27;;
66893;SDS011;53801;55.786;49.142;2023-07-31T05:06:41;1.70;;;0.77;;
66893;SDS011;53801;55.786;49.142;2023-07-31T05:09:07;2.35;;;0.80;;
66893;SDS011;53801;55.786;49.142;2023-07-31T05:11:34;1.85;;;0.80;;
66893;SDS011;53801;55.786;49.142;2023-07-31T05:14:00;2.37;;;0.87;;
66893;SDS011;53801;55.786;49.142;2023-07-31T05:16:25;1.25;;;0.82;;
66893;SDS011;53801;55.786;49.142;2023-07-31T05:18:51;2.25;;;0.65;;
66893;SDS011;53801;55.786;49.142;2023-07-31T05:21:19;2.40;;;0.80;;
66893;SDS011;53801;55.786;49.142;2023-07-31T05:24:29;1.15;;;0.57;;
66893;SDS011;53801;55.786;49.142;2023-07-31T05:26:55;2.55;;;0.60;;
66893;SDS011;53801;55.786;49.142;2023-07-31T05:29:20;3.10;;;0.60;;
66893;SDS011;53801;55.786;49.142;2023-07-31T05:31:46;1.40;;;0.70;;
66893;SDS011;53801;55.786;49.142;2023-07-31T05:34:11;2.15;;;0.68;;
66893;SDS011;53801;55.786;49.142;2023-07-31T05:36:37;2.00;;;0.60;;
66893;SDS011;53801;55.786;49.142;2023-07-31T05:39:02;1.33;;;0.50;;
66893;SDS011;53801;55.786;49.142;2023-07-31T05:41:32;1.65;;;0.60;;
66893;SDS011;53801;55.786;49.142;2023-07-31T05:43:57;1.10;;;0.60;;
66893;SDS011;53801;55.786;49.142;2023-07-31T05:46:23;2.55;;;0.85;;
66893;SDS011;53801;55.786;49.142;2023-07-31T05:48:48;2.10;;;0.90;;
66893;SDS011;53801;55.786;49.142;2023-07-31T05:51:14;3.10;;;0.90;;
66893;SDS011;53801;55.786;49.142;2023-07-31T05:53:42;2.10;;;0.90;;
66893;SDS011;53801;55.786;49.142;2023-07-31T05:56:08;2.08;;;0.82;;
66893;SDS011;53801;55.786;49.142;2023-07-31T05:58:34;2.20;;;0.90;;
66893;SDS011;53801;55.786;49.142;2023-07-31T06:01:00;1.77;;;0.70;;
66893;SDS011;53801;55.786;49.142;2023-07-31T06:03:25;3.25;;;1.20;;
66893;SDS011;53801;55.786;49.142;2023-07-31T06:05:50;2.60;;;0.90;;
66893;SDS011;53801;55.786;49.142;2023-07-31T06:08:16;3.87;;;1.20;;
66893;SDS011;53801;55.786;49.142;2023-07-31T06:10:41;3.77;;;1.00;;
66893;SDS011;53801;55.786;49.142;2023-07-31T06:13:07;1.67;;;0.90;;
66893;SDS011;53801;55.786;49.142;2023-07-31T06:15:33;3.45;;;1.02;;
66893;SDS011;53801;55.786;49.142;2023-07-31T06:17:58;3.03;;;0.90;;
66893;SDS011;53801;55.786;49.142;2023-07-31T06:20:27;2.22;;;0.90;;
66893;SDS011;53801;55.786;49.142;2023-07-31T06:22:52;2.45;;;0.73;;
66893;SDS011;53801;55.786;49.142;2023-07-31T06:25:18;1.70;;;0.60;;
66893;SDS011;53801;55.786;49.142;2023-07-31T06:27:43;6.37;;;1.03;;
66893;SDS011;53801;55.786;49.142;2023-07-31T06:30:09;3.23;;;1.10;;
66893;SDS011;53801;55.786;49.142;2023-07-31T06:32:34;1.60;;;0.98;;
66893;SDS011;53801;55.786;49.142;2023-07-31T06:35:01;2.42;;;1.13;;
66893;SDS011;53801;55.786;49.142;2023-07-31T06:37:29;2.28;;;1.00;;
66893;SDS011;53801;55.786;49.142;2023-07-31T06:39:54;2.17;;;1.03;;
66893;SDS011;53801;55.786;49.142;2023-07-31T06:42:20;2.17;;;1.27;;
66893;SDS011;53801;55.786;49.142;2023-07-31T06:44:46;4.05;;;1.20;;
66893;SDS011;53801;55.786;49.142;2023-07-31T06:47:11;2.13;;;1.30;;
66893;SDS011;53801;55.786;49.142;2023-07-31T06:49:46;4.40;;;1.40;;
66893;SDS011;53801;55.786;49.142;2023-07-31T06:52:14;1.60;;;1.00;;
66893;SDS011;53801;55.786;49.142;2023-07-31T06:57:37;2.47;;;1.40;;
66893;SDS011;53801;55.786;49.142;2023-07-31T07:00:02;2.03;;;1.40;;
66893;SDS011;53801;55.786;49.142;2023-07-31T07:02:31;2.47;;;1.45;;
66893;SDS011;53801;55.786;49.142;2023-07-31T07:04:56;4.20;;;2.00;;
66893;SDS011;53801;55.786;49.142;2023-07-31T07:07:22;4.20;;;1.63;;
66893;SDS011;53801;55.786;49.142;2023-07-31T07:09:47;3.00;;;1.50;;
66893;SDS011;53801;55.786;49.142;2023-07-31T07:12:13;2.70;;;1.40;;
66893;SDS011;53801;55.786;49.142;2023-07-31T07:14:41;4.10;;;1.30;;
66893;SDS011;53801;55.786;49.142;2023-07-31T07:17:07;3.10;;;1.27;;
66893;SDS011;53801;55.786;49.142;2023-07-31T07:19:32;3.80;;;1.60;;
66893;SDS011;53801;55.786;49.142;2023-07-31T07:22:02;2.35;;;1.42;;
66893;SDS011;53801;55.786;49.142;2023-07-31T07:24:31;3.10;;;1.50;;
66893;SDS011;53801;55.786;49.142;2023-07-31T07:27:03;5.60;;;1.85;;
66893;SDS011;53801;55.786;49.142;2023-07-31T07:29:32;3.17;;;1.40;;
66893;SDS011;53801;55.786;49.142;2023-07-31T07:31:57;3.10;;;1.80;;
66893;SDS011;53801;55.786;49.142;2023-07-31T07:34:24;2.30;;;2.00;;
66893;SDS011;53801;55.786;49.142;2023-07-31T07:36:49;4.20;;;2.63;;
66893;SDS011;53801;55.786;49.142;2023-07-31T07:39:15;4.30;;;2.97;;
66893;SDS011;53801;55.786;49.142;2023-07-31T07:41:40;5.70;;;2.13;;
66893;SDS011;53801;55.786;49.142;2023-07-31T07:44:06;2.73;;;2.10;;
66893;SDS011;53801;55.786;49.142;2023-07-31T07:46:33;4.68;;;2.10;;
66893;SDS011;53801;55.786;49.142;2023-07-31T07:49:02;2.60;;;2.00;;
66893;SDS011;53801;55.786;49.142;2023-07-31T07:51:27;3.93;;;1.90;;
66893;SDS011;53801;55.786;49.142;2023-07-31T07:53:52;3.03;;;1.80;;
66893;SDS011;53801;55.786;49.142;2023-07-31T07:56:18;2.60;;;1.70;;
66893;SDS011;53801;55.786;49.142;2023-07-31T07:58:43;2.13;;;1.40;;
66893;SDS011;53801;55.786;49.142;2023-07-31T08:01:09;2.60;;;1.50;;
66893;SDS011;53801;55.786;49.142;2023-07-31T08:03:34;2.95;;;2.13;;
66893;SDS011;53801;55.786;49.142;2023-07-31T08:06:00;3.50;;;2.47;;
66893;SDS011;53801;55.786;49.142;2023-07-31T08:08:26;4.20;;;2.73;;
66893;SDS011;53801;55.786;49.142;2023-07-31T08:10:57;3.85;;;2.33;;
66893;SDS011;53801;55.786;49.142;2023-07-31T08:13:22;1.90;;;1.33;;
66893;SDS011;53801;55.786;49.142;2023-07-31T08:15:48;2.17;;;1.48;;
66893;SDS011;53801;55.786;49.142;2023-07-31T08:18:13;6.13;;;1.43;;
66893;SDS011;53801;55.786;49.142;2023-07-31T08:20:39;3.90;;;1.57;;
66893;SDS011;53801;55.786;49.142;2023-07-31T08:23:27;5.55;;;1.98;;
66893;SDS011;53801;55.786;49.142;2023-07-31T08:25:53;3.83;;;1.80;;
66893;SDS011;53801;55.786;49.142;2023-07-31T08:28:18;2.47;;;1.50;;
66893;SDS011;53801;55.786;49.142;2023-07-31T08:30:43;1.60;;;1.10;;
66893;SDS011;53801;55.786;49.142;2023-07-31T08:33:09;1.23;;;1.13;;
66893;SDS011;53801;55.786;49.142;2023-07-31T08:35:37;1.60;;;1.50;;
66893;SDS011;53801;55.786;49.142;2023-07-31T08:38:03;3.13;;;1.55;;
66893;SDS011;53801;55.786;49.142;2023-07-31T08:40:35;3.53;;;1.40;;
66893;SDS011;53801;55.786;49.142;2023-07-31T08:43:00;2.78;;;1.60;;
66893;SDS011;53801;55.786;49.142;2023-07-31T08:45:28;1.73;;;1.63;;
66893;SDS011;53801;55.786;49.142;2023-07-31T08:47:57;1.92;;;1.23;;
66893;SDS011;53801;55.786;49.142;2023-07-31T08:50:24;3.63;;;1.55;;
66893;SDS011;53801;55.786;49.142;2023-07-31T08:52:50;1.70;;;1.50;;
66893;SDS011;53801;55.786;49.142;2023-07-31T08:55:16;1.80;;;1.70;;
66893;SDS011;53801;55.786;49.142;2023-07-31T08:57:42;3.33;;;1.70;;
66893;SDS011;53801;55.786;49.142;2023-07-31T09:00:08;2.25;;;1.55;;
66893;SDS011;53801;55.786;49.142;2023-07-31T09:08:14;2.22;;;1.60;;
66893;SDS011;53801;55.786;49.142;2023-07-31T09:10:44;5.13;;;1.90;;
66893;SDS011;53801;55.786;49.142;2023-07-31T09:13:13;1.80;;;1.58;;
66893;SDS011;53801;55.786;49.142;2023-07-31T09:15:39;1.73;;;1.60;;
66893;SDS011;53801;55.786;49.142;2023-07-31T09:18:06;2.55;;;1.40;;
66893;SDS011;53801;55.786;49.142;2023-07-31T09:20:32;1.52;;;1.40;;
66893;SDS011;53801;55.786;49.142;2023-07-31T09:23:08;2.23;;;1.43;;
66893;SDS011;53801;55.786;49.142;2023-07-31T09:25:34;1.85;;;1.30;;
66893;SDS011;53801;55.786;49.142;2023-07-31T09:30:25;2.45;;;1.60;;
66893;SDS011;53801;55.786;49.142;2023-07-31T09:32:51;2.10;;;1.50;;
66893;SDS011;53801;55.786;49.142;2023-07-31T09:35:21;2.28;;;1.20;;
66893;SDS011;53801;55.786;49.142;2023-07-31T09:37:51;2.72;;;1.50;;
66893;SDS011;53801;55.786;49.142;2023-07-31T09:40:33;3.75;;;2.30;;
66893;SDS011;53801;55.786;49.142;2023-07-31T09:43:00;2.20;;;1.80;;
66893;SDS011;53801;55.786;49.142;2023-07-31T09:45:26;2.63;;;2.30;;
66893;SDS011;53801;55.786;49.142;2023-07-31T09:47:52;2.95;;;2.67;;
66893;SDS011;53801;55.786;49.142;2023-07-31T09:50:19;3.23;;;2.90;;
66893;SDS011;53801;55.786;49.142;2023-07-31T09:52:45;3.70;;;3.40;;
66893;SDS011;53801;55.786;49.142;2023-07-31T09:55:10;6.27;;;3.50;;
66893;SDS011;53801;55.786;49.142;2023-07-31T09:57:37;3.70;;;3.40;;
66893;SDS011;53801;55.786;49.142;2023-07-31T10:00:07;2.60;;;2.40;;
66893;SDS011;53801;55.786;49.142;2023-07-31T10:02:36;2.50;;;2.30;;
66893;SDS011;53801;55.786;49.142;2023-07-31T10:07:52;5.00;;;4.18;;
66893;SDS011;53801;55.786;49.142;2023-07-31T10:12:56;4.10;;;3.80;;
66893;SDS011;53801;55.786;49.142;2023-07-31T10:15:21;3.70;;;3.03;;
66893;SDS011;53801;55.786;49.142;2023-07-31T10:17:50;4.55;;;3.50;;
66893;SDS011;53801;55.786;49.142;2023-07-31T10:20:16;4.07;;;3.67;;
66893;SDS011;53801;55.786;49.142;2023-07-31T10:22:48;3.78;;;2.47;;
66893;SDS011;53801;55.786;49.142;2023-07-31T10:27:56;3.65;;;2.30;;
66893;SDS011;53801;55.786;49.142;2023-07-31T10:30:25;2.45;;;2.17;;
66893;SDS011;53801;55.786;49.142;2023-07-31T10:32:51;2.30;;;2.10;;
66893;SDS011;53801;55.786;49.142;2023-07-31T10:35:18;4.50;;;2.67;;
66893;SDS011;53801;55.786;49.142;2023-07-31T10:37:43;2.33;;;1.90;;
66893;SDS011;53801;55.786;49.142;2023-07-31T10:40:12;5.90;;;2.42;;
66893;SDS011;53801;55.786;49.142;2023-07-31T10:42:47;3.00;;;1.90;;
66893;SDS011;53801;55.786;49.142;2023-07-31T10:45:17;2.25;;;1.48;;
66893;SDS011;53801;55.786;49.142;2023-07-31T10:47:57;4.80;;;1.80;;
66893;SDS011;53801;55.786;49.142;2023-07-31T10:50:26;3.17;;;1.65;;
66893;SDS011;53801;55.786;49.142;2023-07-31T10:52:56;2.42;;;1.75;;
66893;SDS011;53801;55.786;49.142;2023-07-31T10:55:24;2.47;;;1.50;;
66893;SDS011;53801;55.786;49.142;2023-07-31T10:58:05;4.30;;;1.38;;
66893;SDS011;53801;55.786;49.142;2023-07-31T11:00:44;2.00;;;1.50;;
66893;SDS011;53801;55.786;49.142;2023-07-31T11:05:45;3.58;;;1.50;;
66893;SDS011;53801;55.786;49.142;2023-07-31T11:08:12;2.55;;;1.50;;
66893;SDS011;53801;55.786;49.142;2023-07-31T11:10:42;2.47;;;1.30;;
66893;SDS011;53801;55.786;49.142;2023-07-31T11:13:07;2.72;;;1.52;;
66893;SDS011;53801;55.786;49.142;2023-07-31T11:15:33;2.00;;;1.33;;
66893;SDS011;53801;55.786;49.142;2023-07-31T11:18:00;2.42;;;1.75;;
66893;SDS011;53801;55.786;49.142;2023-07-31T11:20:25;2.75;;;1.45;;
66893;SDS011;53801;55.786;49.142;2023-07-31T11:22:51;1.95;;;1.60;;
66893;SDS011;53801;55.786;49.142;2023-07-31T11:25:20;2.00;;;1.43;;
66893;SDS011;53801;55.786;49.142;2023-07-31T11:27:47;2.13;;;1.42;;
66893;SDS011;53801;55.786;49.142;2023-07-31T11:30:18;3.75;;;1.48;;
66893;SDS011;53801;55.786;49.142;2023-07-31T11:32:43;5.63;;;1.38;;
66893;SDS011;53801;55.786;49.142;2023-07-31T11:35:12;1.93;;;1.30;;
66893;SDS011;53801;55.786;49.142;2023-07-31T11:37:41;1.85;;;0.90;;
66893;SDS011;53801;55.786;49.142;2023-07-31T11:40:09;1.50;;;1.40;;
66893;SDS011;53801;55.786;49.142;2023-07-31T11:42:35;2.80;;;1.20;;
66893;SDS011;53801;55.786;49.142;2023-07-31T11:45:04;1.98;;;1.20;;
66893;SDS011;53801;55.786;49.142;2023-07-31T11:47:34;2.00;;;1.70;;
66893;SDS011;53801;55.786;49.142;2023-07-31T11:50:02;4.35;;;1.42;;
66893;SDS011;53801;55.786;49.142;2023-07-31T11:52:37;3.67;;;1.30;;
66893;SDS011;53801;55.786;49.142;2023-07-31T11:55:03;2.00;;;1.20;;
66893;SDS011;53801;55.786;49.142;2023-07-31T11:57:29;3.08;;;1.30;;
66893;SDS011;53801;55.786;49.142;2023-07-31T11:59:54;3.17;;;1.30;;
66893;SDS011;53801;55.786;49.142;2023-07-31T12:02:20;3.33;;;1.10;;
66893;SDS011;53801;55.786;49.142;2023-07-31T12:04:46;4.65;;;1.38;;
66893;SDS011;53801;55.786;49.142;2023-07-31T12:07:12;3.63;;;1.40;;
66893;SDS011;53801;55.786;49.142;2023-07-31T12:09:38;3.83;;;1.42;;
66893;SDS011;53801;55.786;49.142;2023-07-31T12:12:07;5.70;;;1.87;;
66893;SDS011;53801;55.786;49.142;2023-07-31T12:14:33;4.05;;;1.52;;
66893;SDS011;53801;55.786;49.142;2023-07-31T12:16:59;1.97;;;1.20;;
66893;SDS011;53801;55.786;49.142;2023-07-31T12:19:25;2.67;;;1.30;;
66893;SDS011;53801;55.786;49.142;2023-07-31T12:21:53;1.55;;;1.02;;
66893;SDS011;53801;55.786;49.142;2023-07-31T12:24:19;2.10;;;1.27;;
66893;SDS011;53801;55.786;49.142;2023-07-31T12:26:45;2.00;;;1.05;;
66893;SDS011;53801;55.786;49.142;2023-07-31T12:29:11;2.05;;;1.10;;
66893;SDS011;53801;55.786;49.142;2023-07-31T12:31:37;2.47;;;1.10;;
66893;SDS011;53801;55.786;49.142;2023-07-31T12:34:02;4.38;;;1.35;;
66893;SDS011;53801;55.786;49.142;2023-07-31T12:36:28;4.53;;;1.40;;
66893;SDS011;53801;55.786;49.142;2023-07-31T12:38:55;4.72;;;1.60;;
66893;SDS011;53801;55.786;49.142;2023-07-31T12:41:23;5.05;;;1.30;;
66893;SDS011;53801;55.786;49.142;2023-07-31T12:43:48;2.23;;;1.07;;
66893;SDS011;53801;55.786;49.142;2023-07-31T12:46:14;3.03;;;1.50;;
66893;SDS011;53801;55.786;49.142;2023-07-31T12:48:40;3.15;;;1.00;;
66893;SDS011;53801;55.786;49.142;2023-07-31T12:51:05;2.50;;;1.10;;
66893;SDS011;53801;55.786;49.142;2023-07-31T12:53:33;5.43;;;1.35;;
66893;SDS011;53801;55.786;49.142;2023-07-31T12:55:59;4.72;;;1.20;;
66893;SDS011;53801;55.786;49.142;2023-07-31T12:58:25;3.53;;;1.23;;
66893;SDS011;53801;55.786;49.142;2023-07-31T13:00:51;4.07;;;1.17;;
66893;SDS011;53801;55.786;49.142;2023-07-31T13:03:16;3.05;;;1.20;;
66893;SDS011;53801;55.786;49.142;2023-07-31T13:05:42;2.37;;;1.20;;
66893;SDS011;53801;55.786;49.142;2023-07-31T13:08:07;1.97;;;0.90;;
66893;SDS011;53801;55.786;49.142;2023-07-31T13:10:32;1.10;;;0.90;;
66893;SDS011;53801;55.786;49.142;2023-07-31T13:12:58;1.48;;;0.90;;
66893;SDS011;53801;55.786;49.142;2023-07-31T13:15:23;1.93;;;1.20;;
66893;SDS011;53801;55.786;49.142;2023-07-31T13:17:49;2.73;;;1.30;;
66893;SDS011;53801;55.786;49.142;2023-07-31T13:20:14;5.63;;;1.17;;
66893;SDS011;53801;55.786;49.142;2023-07-31T13:22:40;2.33;;;1.35;;
66893;SDS011;53801;55.786;49.142;2023-07-31T13:25:05;7.37;;;2.00;;
66893;SDS011;53801;55.786;49.142;2023-07-31T13:27:31;3.63;;;1.13;;
66893;SDS011;53801;55.786;49.142;2023-07-31T13:29:57;4.05;;;1.38;;
66893;SDS011;53801;55.786;49.142;2023-07-31T13:32:22;11.30;;;2.67;;
66893;SDS011;53801;55.786;49.142;2023-07-31T13:34:48;4.53;;;2.00;;
66893;SDS011;53801;55.786;49.142;2023-07-31T13:37:14;4.73;;;1.03;;
66893;SDS011;53801;55.786;49.142;2023-07-31T13:39:39;2.90;;;0.90;;
66893;SDS011;53801;55.786;49.142;2023-07-31T13:42:06;3.40;;;1.35;;
66893;SDS011;53801;55.786;49.142;2023-07-31T13:44:34;2.03;;;0.90;;
66893;SDS011;53801;55.786;49.142;2023-07-31T13:47:00;3.42;;;2.15;;
66893;SDS011;53801;55.786;49.142;2023-07-31T13:49:26;5.33;;;1.20;;
66893;SDS011;53801;55.786;49.142;2023-07-31T13:51:51;2.28;;;1.10;;
66893;SDS011;53801;55.786;49.142;2023-07-31T13:54:16;7.40;;;1.27;;
66893;SDS011;53801;55.786;49.142;2023-07-31T13:56:42;6.70;;;1.73;;
66893;SDS011;53801;55.786;49.142;2023-07-31T13:59:08;9.73;;;1.77;;
66893;SDS011;53801;55.786;49.142;2023-07-31T14:01:33;3.65;;;1.30;;
66893;SDS011;53801;55.786;49.142;2023-07-31T14:03:59;4.78;;;1.35;;
66893;SDS011;53801;55.786;49.142;2023-07-31T14:06:24;5.17;;;1.50;;
66893;SDS011;53801;55.786;49.142;2023-07-31T14:08:50;2.00;;;1.20;;
66893;SDS011;53801;55.786;49.142;2023-07-31T14:11:15;1.63;;;1.00;;
66893;SDS011;53801;55.786;49.142;2023-07-31T14:13:41;2.53;;;1.00;;
66893;SDS011;53801;55.786;49.142;2023-07-31T14:16:06;4.70;;;1.48;;
66893;SDS011;53801;55.786;49.142;2023-07-31T14:18:32;5.10;;;1.73;;
66893;SDS011;53801;55.786;49.142;2023-07-31T14:20:57;4.33;;;1.70;;
66893;SDS011;53801;55.786;49.142;2023-07-31T14:23:23;7.63;;;2.07;;
66893;SDS011;53801;55.786;49.142;2023-07-31T14:25:48;4.50;;;1.20;;
66893;SDS011;53801;55.786;49.142;2023-07-31T14:28:13;2.25;;;1.17;;
66893;SDS011;53801;55.786;49.142;2023-07-31T14:30:39;5.53;;;1.30;;
66893;SDS011;53801;55.786;49.142;2023-07-31T14:33:04;4.53;;;1.40;;
66893;SDS011;53801;55.786;49.142;2023-07-31T14:35:30;4.93;;;1.40;;
66893;SDS011;53801;55.786;49.142;2023-07-31T14:37:55;8.02;;;1.77;;
66893;SDS011;53801;55.786;49.142;2023-07-31T14:40:21;3.87;;;1.50;;
66893;SDS011;53801;55.786;49.142;2023-07-31T14:42:46;6.17;;;1.63;;
66893;SDS011;53801;55.786;49.142;2023-07-31T14:45:12;5.00;;;1.70;;
66893;SDS011;53801;55.786;49.142;2023-07-31T14:47:37;2.10;;;1.13;;
66893;SDS011;53801;55.786;49.142;2023-07-31T14:50:03;2.70;;;1.40;;
66893;SDS011;53801;55.786;49.142;2023-07-31T14:52:29;4.22;;;1.30;;
66893;SDS011;53801;55.786;49.142;2023-07-31T14:54:54;4.70;;;1.37;;
66893;SDS011;53801;55.786;49.142;2023-07-31T14:57:20;3.28;;;1.10;;
66893;SDS011;53801;55.786;49.142;2023-07-31T14:59:46;2.27;;;1.00;;
66893;SDS011;53801;55.786;49.142;2023-07-31T15:02:11;4.20;;;1.13;;
66893;SDS011;53801;55.786;49.142;2023-07-31T15:04:37;3.20;;;1.00;;
66893;SDS011;53801;55.786;49.142;2023-07-31T15:07:03;2.27;;;0.87;;
66893;SDS011;53801;55.786;49.142;2023-07-31T15:09:29;3.03;;;0.82;;